Time;durP1;ratioP1;P1;durP2;ratioP2;P2;SDS_P1;SDS_P2;PMS_P1;PMS_P2;Temp;Humidity;BMP_temperature;BMP_pressure;BME280_temperature;BME280_humidity;BME280_pressure;Samples;Min_cycle;Max_cycle;Signal;HPM_P1;HPM_P2
2022/01/01 00:02:25;;;;;;;6.13;1.13;;;;;;;;;;5156251;27;20031;-75
2022/01/01 00:04:52;;;;;;;5.13;0.88;;;;;;;;;;5156242;27;20409;-75
2022/01/01 00:07:19;;;;;;;5.60;0.95;;;;;;;;;;5156140;27;20023;-74
2022/01/01 00:09:46;;;;;;;6.15;0.95;;;;;;;;;;5156231;27;20040;-74
2022/01/01 00:12:13;;;;;;;4.35;0.88;;;;;;;;;;5156064;27;20023;-74
2022/01/01 00:14:41;;;;;;;3.40;0.65;;;;;;;;;;5137562;27;20155;-74
2022/01/01 00:17:09;;;;;;;5.80;1.00;;;;;;;;;;5137043;27;20442;-75
2022/01/01 00:19:36;;;;;;;3.63;0.75;;;;;;;;;;5136965;27;20087;-75
2022/01/01 00:22:03;;;;;;;4.78;0.88;;;;;;;;;;5137124;27;20022;-75
2022/01/01 00:24:31;;;;;;;6.20;0.82;;;;;;;;;;5155695;27;20025;-74
2022/01/01 00:26:58;;;;;;;4.45;0.70;;;;;;;;;;5155685;27;20031;-75
2022/01/01 00:29:25;;;;;;;3.65;0.63;;;;;;;;;;5136802;27;20087;-75
2022/01/01 00:31:52;;;;;;;6.43;0.77;;;;;;;;;;5136745;27;20019;-75
2022/01/01 00:34:19;;;;;;;5.07;0.93;;;;;;;;;;5136211;27;20023;-75
2022/01/01 00:36:46;;;;;;;5.57;0.80;;;;;;;;;;5155398;27;20057;-75
2022/01/01 00:39:13;;;;;;;6.40;0.82;;;;;;;;;;5136519;27;20178;-75
2022/01/01 00:41:49;;;;;;;5.68;0.90;;;;;;;;;;5136882;27;20031;-75
2022/01/01 00:44:17;;;;;;;4.25;0.82;;;;;;;;;;5155558;27;20019;-76
2022/01/01 00:46:44;;;;;;;4.70;0.70;;;;;;;;;;5155216;27;20427;-75
2022/01/01 00:49:11;;;;;;;5.30;1.02;;;;;;;;;;5155260;27;20150;-76
2022/01/01 00:51:38;;;;;;;5.28;0.90;;;;;;;;;;5154967;27;20021;-76
2022/01/01 00:54:05;;;;;;;4.90;0.85;;;;;;;;;;5155046;27;20516;-76
2022/01/01 00:56:32;;;;;;;3.70;0.88;;;;;;;;;;5136099;27;20394;-76
2022/01/01 00:58:59;;;;;;;4.35;0.60;;;;;;;;;;5136183;27;20022;-75
2022/01/01 01:01:27;;;;;;;3.80;0.88;;;;;;;;;;5136440;27;20050;-75
2022/01/01 01:03:54;;;;;;;6.72;1.00;;;;;;;;;;5154768;27;20022;-76
2022/01/01 01:06:21;;;;;;;4.78;0.82;;;;;;;;;;5154834;27;20521;-75
2022/01/01 01:08:49;;;;;;;3.25;0.60;;;;;;;;;;5155114;27;20015;-76
2022/01/01 01:11:16;;;;;;;5.53;0.98;;;;;;;;;;5136210;27;20042;-76
2022/01/01 01:13:45;;;;;;;4.13;0.70;;;;;;;;;;5154976;27;20026;-76
2022/01/01 01:16:12;;;;;;;6.17;1.20;;;;;;;;;;5154969;27;20079;-76
2022/01/01 01:18:40;;;;;;;5.82;0.90;;;;;;;;;;5135923;27;20305;-76
2022/01/01 01:21:07;;;;;;;5.15;0.70;;;;;;;;;;5136017;27;20030;-76
2022/01/01 01:23:34;;;;;;;5.95;0.63;;;;;;;;;;5154547;27;20027;-76
2022/01/01 01:26:01;;;;;;;6.10;0.80;;;;;;;;;;5154528;27;20409;-76
2022/01/01 01:28:28;;;;;;;4.82;1.00;;;;;;;;;;5154981;27;20087;-76
2022/01/01 01:30:56;;;;;;;5.07;0.70;;;;;;;;;;5154754;27;20383;-76
2022/01/01 01:33:23;;;;;;;6.82;1.23;;;;;;;;;;5154648;27;20095;-75
2022/01/01 01:35:50;;;;;;;7.00;0.98;;;;;;;;;;5154806;27;20018;-76
2022/01/01 01:38:17;;;;;;;4.75;0.90;;;;;;;;;;5154490;27;20033;-75
2022/01/01 01:40:44;;;;;;;4.43;0.88;;;;;;;;;;5135555;27;20031;-75
2022/01/01 01:43:13;;;;;;;5.22;0.80;;;;;;;;;;5154484;27;20049;-76
2022/01/01 01:45:42;;;;;;;4.78;0.55;;;;;;;;;;5135527;27;20022;-76
2022/01/01 01:48:09;;;;;;;4.72;0.80;;;;;;;;;;5135059;27;20015;-75
2022/01/01 01:50:37;;;;;;;4.70;0.85;;;;;;;;;;5135670;27;20110;-74
2022/01/01 01:53:06;;;;;;;5.78;0.60;;;;;;;;;;5154240;27;20062;-75
2022/01/01 01:55:33;;;;;;;5.68;0.80;;;;;;;;;;5154520;27;20113;-75
2022/01/01 01:58:00;;;;;;;6.35;1.00;;;;;;;;;;5154603;27;20018;-75
2022/01/01 02:03:13;;;;;;;4.97;1.00;;;;;;;;;;5154539;27;20026;-76
2022/01/01 02:05:40;;;;;;;5.35;0.75;;;;;;;;;;5135749;27;20029;-75
2022/01/01 02:08:08;;;;;;;7.10;1.10;;;;;;;;;;5154321;27;20075;-75
2022/01/01 02:10:35;;;;;;;5.60;1.10;;;;;;;;;;5135527;27;20483;-76
2022/01/01 02:13:21;;;;;;;4.70;0.80;;;;;;;;;;5135667;27;20015;-76
2022/01/01 02:18:18;;;;;;;5.15;0.95;;;;;;;;;;5154297;27;20023;-75
2022/01/01 02:20:49;;;;;;;7.43;1.02;;;;;;;;;;5154196;27;20101;-75
2022/01/01 02:23:17;;;;;;;5.38;0.85;;;;;;;;;;5154423;27;20010;-75
2022/01/01 02:25:45;;;;;;;2.85;0.90;;;;;;;;;;5154279;27;20034;-75
2022/01/01 02:28:13;;;;;;;3.58;0.98;;;;;;;;;;5154422;27;20029;-76
2022/01/01 02:30:40;;;;;;;4.00;0.80;;;;;;;;;;5135585;27;20391;-77
2022/01/01 02:33:07;;;;;;;3.72;0.55;;;;;;;;;;5135373;27;20500;-76
2022/01/01 02:35:34;;;;;;;7.30;1.25;;;;;;;;;;5154366;27;20023;-77
2022/01/01 02:38:01;;;;;;;6.25;0.90;;;;;;;;;;5135767;27;20023;-76
2022/01/01 02:40:29;;;;;;;6.28;0.95;;;;;;;;;;5135295;27;20101;-75
2022/01/01 02:42:56;;;;;;;3.40;0.68;;;;;;;;;;5154236;27;20495;-76
2022/01/01 02:45:23;;;;;;;4.35;0.85;;;;;;;;;;5154090;27;20025;-76
2022/01/01 02:47:51;;;;;;;3.70;0.63;;;;;;;;;;5135762;27;20046;-75
2022/01/01 02:50:18;;;;;;;4.55;0.95;;;;;;;;;;5135377;27;20030;-76
2022/01/01 02:52:47;;;;;;;3.30;0.77;;;;;;;;;;5154268;27;20090;-78
2022/01/01 02:55:14;;;;;;;6.28;0.90;;;;;;;;;;5154397;27;20023;-76
2022/01/01 02:57:41;;;;;;;4.43;0.70;;;;;;;;;;5136506;27;20505;-74
2022/01/01 03:00:09;;;;;;;4.28;0.70;;;;;;;;;;5157985;27;20023;-77
2022/01/01 03:02:36;;;;;;;6.30;1.00;;;;;;;;;;5138736;27;20053;-76
2022/01/01 03:05:04;;;;;;;8.00;0.80;;;;;;;;;;5157561;27;20119;-76
2022/01/01 03:07:31;;;;;;;4.55;0.70;;;;;;;;;;5139359;27;20034;-75
2022/01/01 03:09:58;;;;;;;3.78;0.70;;;;;;;;;;5157798;27;20023;-77
2022/01/01 03:12:25;;;;;;;3.33;0.80;;;;;;;;;;5139314;27;20091;-76
2022/01/01 03:14:53;;;;;;;4.55;0.80;;;;;;;;;;5138738;27;20019;-76
2022/01/01 03:17:20;;;;;;;5.30;0.80;;;;;;;;;;5139020;27;20038;-76
2022/01/01 03:19:47;;;;;;;2.55;0.82;;;;;;;;;;5157290;27;20492;-76
2022/01/01 03:22:14;;;;;;;5.65;0.80;;;;;;;;;;5138294;27;20051;-76
2022/01/01 03:24:41;;;;;;;4.13;0.50;;;;;;;;;;5157299;27;20018;-76
2022/01/01 03:27:10;;;;;;;;;;;;;;;;;;5157461;27;20037;-76
2022/01/01 03:29:38;;;;;;;6.15;0.82;;;;;;;;;;5138764;27;19903;-77
2022/01/01 03:32:05;;;;;;;4.53;0.60;;;;;;;;;;5157685;27;20043;-78
2022/01/01 03:34:33;;;;;;;6.25;1.33;;;;;;;;;;5138641;27;20387;-78
2022/01/01 03:37:00;;;;;;;4.72;0.82;;;;;;;;;;5157358;27;20022;-76
2022/01/01 03:39:27;;;;;;;4.60;0.75;;;;;;;;;;5138035;27;20030;-77
2022/01/01 03:41:54;;;;;;;2.65;0.60;;;;;;;;;;5156803;27;20505;-76
2022/01/01 03:44:21;;;;;;;2.65;0.63;;;;;;;;;;5156894;27;20026;-75
2022/01/01 03:46:49;;;;;;;5.40;0.73;;;;;;;;;;5137783;27;20059;-76
2022/01/01 03:49:16;;;;;;;2.42;0.50;;;;;;;;;;5138107;27;20382;-76
2022/01/01 03:51:43;;;;;;;5.32;0.60;;;;;;;;;;5137743;27;20046;-76
2022/01/01 03:54:12;;;;;;;4.40;1.00;;;;;;;;;;5156334;27;20038;-76
2022/01/01 03:56:39;;;;;;;4.90;0.88;;;;;;;;;;5138070;27;20023;-77
2022/01/01 03:59:06;;;;;;;5.22;0.95;;;;;;;;;;5137768;27;20045;-77
2022/01/01 04:01:33;;;;;;;3.63;0.55;;;;;;;;;;5156960;27;20019;-78
2022/01/01 04:04:01;;;;;;;5.22;1.00;;;;;;;;;;5138325;27;20091;-78
2022/01/01 04:06:28;;;;;;;5.70;1.02;;;;;;;;;;5156469;27;20501;-77
2022/01/01 04:08:55;;;;;;;5.70;0.80;;;;;;;;;;5137137;27;20022;-78
2022/01/01 04:11:22;;;;;;;7.38;1.40;;;;;;;;;;5138219;27;20019;-79
2022/01/01 04:13:50;;;;;;;5.97;0.77;;;;;;;;;;5138910;27;20106;-79
2022/01/01 04:16:18;;;;;;;3.33;0.85;;;;;;;;;;5156864;27;20025;-77
2022/01/01 04:18:45;;;;;;;3.80;1.15;;;;;;;;;;5138545;27;20420;-78
2022/01/01 04:21:13;;;;;;;6.57;1.20;;;;;;;;;;5156930;27;20019;-77
2022/01/01 04:23:41;;;;;;;5.25;0.80;;;;;;;;;;5156439;27;20046;-77
2022/01/01 04:26:08;;;;;;;6.75;1.45;;;;;;;;;;5138216;27;20094;-77
2022/01/01 04:28:36;;;;;;;5.18;0.95;;;;;;;;;;5137936;27;20095;-78
2022/01/01 04:31:04;;;;;;;5.53;1.02;;;;;;;;;;5138694;27;20025;-77
2022/01/01 04:33:31;;;;;;;5.97;0.88;;;;;;;;;;5156300;27;20053;-78
2022/01/01 04:35:58;;;;;;;4.57;0.93;;;;;;;;;;5156212;27;20025;-76
2022/01/01 04:40:53;;;;;;;5.35;1.10;;;;;;;;;;5156629;27;20541;-77
2022/01/01 04:43:20;;;;;;;7.70;1.60;;;;;;;;;;5137794;27;20030;-78
2022/01/01 04:45:47;;;;;;;8.02;1.10;;;;;;;;;;5155971;27;20033;-77
2022/01/01 04:48:14;;;;;;;6.93;1.02;;;;;;;;;;5136882;27;20042;-77
2022/01/01 04:50:41;;;;;;;6.55;1.48;;;;;;;;;;5136918;27;20022;-77
2022/01/01 04:53:13;;;;;;;5.53;0.93;;;;;;;;;;5155540;27;20039;-77
2022/01/01 04:55:41;;;;;;;5.60;0.90;;;;;;;;;;5155868;27;20115;-77
2022/01/01 04:58:10;;;;;;;4.95;1.10;;;;;;;;;;5137100;27;20046;-76
2022/01/01 05:00:38;;;;;;;4.03;0.60;;;;;;;;;;5156157;27;20015;-77
2022/01/01 05:03:05;;;;;;;4.50;0.85;;;;;;;;;;5136755;27;20023;-75
2022/01/01 05:05:32;;;;;;;3.63;0.80;;;;;;;;;;5137174;27;20487;-78
2022/01/01 05:07:59;;;;;;;6.28;1.27;;;;;;;;;;5136715;27;20026;-78
2022/01/01 05:10:26;;;;;;;7.07;1.27;;;;;;;;;;5136890;27;20501;-77
2022/01/01 05:12:53;;;;;;;7.03;1.27;;;;;;;;;;5136320;27;20018;-76
2022/01/01 05:15:21;;;;;;;5.07;1.15;;;;;;;;;;5137073;27;20022;-78
2022/01/01 05:17:48;;;;;;;5.40;1.17;;;;;;;;;;5136754;27;20025;-75
2022/01/01 05:20:15;;;;;;;6.57;1.27;;;;;;;;;;5155035;27;20391;-77
2022/01/01 05:22:42;;;;;;;10.98;1.48;;;;;;;;;;5155188;27;20501;-80
2022/01/01 05:25:09;;;;;;;7.40;1.40;;;;;;;;;;5136640;27;20022;-75
2022/01/01 05:27:37;;;;;;;5.80;1.10;;;;;;;;;;5138486;27;20114;-79
2022/01/01 05:30:05;;;;;;;7.93;1.23;;;;;;;;;;5156542;27;20015;-77
2022/01/01 05:32:32;;;;;;;8.13;1.48;;;;;;;;;;5156107;27;20046;-77
2022/01/01 05:34:59;;;;;;;6.22;1.77;;;;;;;;;;5155046;27;20022;-75
2022/01/01 05:37:26;;;;;;;8.27;1.58;;;;;;;;;;5136313;27;20030;-74
2022/01/01 05:39:56;;;;;;;;;;;;;;;;;;5155128;27;20058;-74
2022/01/01 05:42:23;;;;;;;7.53;1.50;;;;;;;;;;5154913;27;19937;-76
2022/01/01 05:44:50;;;;;;;5.75;1.48;;;;;;;;;;5154609;27;20071;-75
2022/01/01 05:47:17;;;;;;;6.60;1.25;;;;;;;;;;5136136;27;20033;-74
2022/01/01 05:49:44;;;;;;;11.07;1.67;;;;;;;;;;5154758;27;20027;-76
2022/01/01 05:52:11;;;;;;;7.45;1.35;;;;;;;;;;5136543;27;20019;-74
2022/01/01 05:54:39;;;;;;;8.40;1.30;;;;;;;;;;5135682;27;20523;-75
2022/01/01 05:57:06;;;;;;;5.25;1.23;;;;;;;;;;5135546;27;20168;-74
2022/01/01 05:59:33;;;;;;;8.20;1.67;;;;;;;;;;5154403;27;20027;-75
2022/01/01 06:02:00;;;;;;;5.90;1.15;;;;;;;;;;5136412;27;20030;-75
2022/01/01 06:04:28;;;;;;;6.32;1.25;;;;;;;;;;5137344;27;20490;-76
2022/01/01 06:06:56;;;;;;;10.10;2.05;;;;;;;;;;5155810;27;20027;-75
2022/01/01 06:09:23;;;;;;;7.97;1.77;;;;;;;;;;5155323;27;20097;-75
2022/01/01 06:11:50;;;;;;;8.13;1.30;;;;;;;;;;5154605;27;20023;-75
2022/01/01 06:14:17;;;;;;;7.75;1.48;;;;;;;;;;5154563;27;20049;-74
2022/01/01 06:16:44;;;;;;;9.73;2.17;;;;;;;;;;5155244;27;20023;-74
2022/01/01 06:19:11;;;;;;;8.00;1.90;;;;;;;;;;5136477;27;20027;-75
2022/01/01 06:21:39;;;;;;;5.40;1.20;;;;;;;;;;5136309;27;20023;-77
2022/01/01 06:24:06;;;;;;;6.68;1.45;;;;;;;;;;5135457;27;20019;-78
2022/01/01 06:26:33;;;;;;;7.50;1.30;;;;;;;;;;5135576;27;20117;-76
2022/01/01 06:29:01;;;;;;;8.60;1.45;;;;;;;;;;5154512;27;20130;-76
2022/01/01 06:31:28;;;;;;;6.32;1.67;;;;;;;;;;5154263;27;20019;-75
2022/01/01 06:33:56;;;;;;;6.43;1.23;;;;;;;;;;5157189;27;20019;-76
2022/01/01 06:36:23;;;;;;;5.50;1.27;;;;;;;;;;5139089;27;20159;-75
2022/01/01 06:38:50;;;;;;;9.13;1.83;;;;;;;;;;5139080;27;20027;-75
2022/01/01 06:41:18;;;;;;;9.55;1.60;;;;;;;;;;5139062;27;20109;-73
2022/01/01 06:43:45;;;;;;;6.47;1.40;;;;;;;;;;5157976;27;20023;-74
2022/01/01 06:46:12;;;;;;;10.75;1.58;;;;;;;;;;5138801;27;20026;-74
2022/01/01 06:48:39;;;;;;;10.50;1.35;;;;;;;;;;5157882;27;20093;-73
2022/01/01 06:51:06;;;;;;;8.60;1.35;;;;;;;;;;5157787;27;20093;-73
2022/01/01 06:53:33;;;;;;;8.40;1.40;;;;;;;;;;5157476;27;20046;-72
2022/01/01 06:56:05;;;;;;;9.50;1.73;;;;;;;;;;5157629;27;20502;-72
2022/01/01 06:58:36;;;;;;;6.68;1.45;;;;;;;;;;5157632;27;20047;-72
2022/01/01 07:01:03;;;;;;;7.88;2.10;;;;;;;;;;5157524;27;20029;-72
2022/01/01 07:03:31;;;;;;;10.27;2.08;;;;;;;;;;5138799;27;20027;-73
2022/01/01 07:05:58;;;;;;;8.25;1.60;;;;;;;;;;5157154;27;20026;-72
2022/01/01 07:08:25;;;;;;;8.27;1.70;;;25.40;99.90;;;;;;5157289;27;20382;-72
2022/01/01 07:10:53;;;;;;;10.55;1.98;;;25.30;99.90;;;;;;5157563;27;20025;-72
2022/01/01 07:13:20;;;;;;;6.68;1.45;;;25.20;99.90;;;;;;5138601;27;20071;-73
2022/01/01 07:15:48;;;;;;;7.07;1.27;;;25.40;99.90;;;;;;5138338;27;20027;-72
2022/01/01 07:18:15;;;;;;;11.75;1.95;;;25.40;99.90;;;;;;5138580;27;20075;-72
2022/01/01 07:20:42;;;;;;;9.57;1.75;;;25.30;99.90;;;;;;5157207;27;20022;-72
2022/01/01 07:23:10;;;;;;;9.90;1.75;;;25.20;99.90;;;;;;5138667;27;20019;-72
2022/01/01 07:25:38;;;;;;;11.73;2.58;;;25.20;99.90;;;;;;5157221;27;20019;-74
2022/01/01 07:28:05;;;;;;;8.57;1.75;;;25.00;99.90;;;;;;5138603;27;20037;-74
2022/01/01 07:30:33;;;;;;;10.95;1.60;;;25.00;99.90;;;;;;5138415;27;20022;-72
2022/01/01 07:33:00;;;;;;;9.30;2.05;;;25.00;99.90;;;;;;5138257;27;20463;-72
2022/01/01 07:35:27;;;;;;;11.13;1.88;;;24.80;99.90;;;;;;5137946;27;20029;-72
2022/01/01 07:37:55;;;;;;;10.93;2.25;;;;;;;;;;5138172;27;20070;-72
2022/01/01 07:40:22;;;;;;;10.02;1.77;;;;;;;;;;5156702;27;20450;-72
2022/01/01 07:42:49;;;;;;;12.43;2.10;;;;;;;;;;5156544;27;20467;-72
2022/01/01 07:45:16;;;;;;;10.43;1.73;;;;;;;;;;5155362;27;20433;-72
2022/01/01 07:47:43;;;;;;;12.20;2.42;;;;;;;;;;5156422;27;20047;-72
2022/01/01 07:50:11;;;;;;;12.48;2.10;;;;;;;;;;5156628;27;20023;-71
2022/01/01 07:52:38;;;;;;;13.75;2.10;;;;;;;;;;5156309;27;20029;-72
2022/01/01 07:55:06;;;;;;;11.07;2.38;;;;;;;;;;5156642;27;20027;-72
2022/01/01 07:57:33;;;;;;;11.25;2.65;;;;;;;;;;5156390;27;20018;-71
2022/01/01 08:00:00;;;;;;;11.27;2.13;;;;;;;;;;5156532;27;20022;-71
2022/01/01 08:02:27;;;;;;;11.15;1.73;;;;;;;;;;5156365;27;20023;-72
2022/01/01 08:04:54;;;;;;;12.23;2.22;;;;;;;;;;5156310;27;20051;-72
2022/01/01 08:07:21;;;;;;;11.88;1.55;;;;;;;;;;5137558;27;20049;-72
2022/01/01 08:09:49;;;;;;;10.93;1.77;;;;;;;;;;5156198;27;20022;-71
2022/01/01 08:12:16;;;;;;;10.23;1.65;;;;;;;;;;5156040;27;20014;-73
2022/01/01 08:14:43;;;;;;;13.38;2.20;;;;;;;;;;5156068;27;20098;-72
2022/01/01 08:17:10;;;;;;;8.57;1.80;;;;;;;;;;5156103;27;20050;-73
2022/01/01 08:19:38;;;;;;;10.80;1.52;;;;;;;;;;5156014;27;20027;-72
2022/01/01 08:22:05;;;;;;;10.57;1.80;;;;;;;;;;5155983;27;20110;-72
2022/01/01 08:24:32;;;;;;;12.60;1.70;;;;;;;;;;5155861;27;20052;-72
2022/01/01 08:27:01;;;;;;;11.52;1.98;;;;;;;;;;5155641;27;20030;-72
2022/01/01 08:29:29;;;;;;;8.63;2.05;;;;;;;;;;5155725;27;20094;-72
2022/01/01 08:31:57;;;;;;;7.68;1.52;;;;;;;;;;5155785;27;20015;-73
2022/01/01 08:34:24;;;;;;;10.63;1.98;;;;;;;;;;5155663;27;20015;-72
2022/01/01 08:36:52;;;;;;;10.45;2.05;;;;;;;;;;5155627;27;20073;-73
2022/01/01 08:39:19;;;;;;;12.65;2.38;;;;;;;;;;5155393;27;20498;-72
2022/01/01 08:41:47;;;;;;;10.85;1.83;;;;;;;;;;5136872;27;20035;-72
2022/01/01 08:44:14;;;;;;;10.20;1.70;;;;;;;;;;5155486;27;20071;-72
2022/01/01 08:46:42;;;;;;;14.75;2.40;;;;;;;;;;5155442;27;20032;-74
2022/01/01 08:49:09;;;;;;;9.52;1.88;;;;;;;;;;5155267;27;20026;-74
2022/01/01 08:51:37;;;;;;;11.00;1.75;;;;;;;;;;5155048;27;20143;-73
2022/01/01 08:54:04;;;;;;;15.10;2.58;;;;;;;;;;5154936;27;20087;-73
2022/01/01 08:56:33;;;;;;;9.70;2.10;;;;;;;;;;5154915;27;20018;-75
2022/01/01 08:59:00;;;;;;;10.55;2.05;;;;;;;;;;5136561;27;20114;-75
2022/01/01 09:01:27;;;;;;;11.77;2.72;;;;;;;;;;5155140;27;20027;-74
2022/01/01 09:03:55;;;;;;;10.80;2.50;;;;;;;;;;5136043;27;20394;-74
2022/01/01 09:06:22;;;;;;;10.60;2.22;;;;;;;;;;5154899;27;20018;-74
2022/01/01 09:08:49;;;;;;;15.00;2.38;;;;;;;;;;5154931;27;20044;-74
2022/01/01 09:11:16;;;;;;;9.98;1.90;;;;;;;;;;5154923;27;20023;-71
2022/01/01 09:13:44;;;;;;;13.68;2.35;;;;;;;;;;5154814;27;20015;-72
2022/01/01 09:16:12;;;;;;;15.07;2.47;;;;;;;;;;5154880;27;20483;-74
2022/01/01 09:18:40;;;;;;;13.70;2.30;;;;;;;;;;5136173;27;20027;-73
2022/01/01 09:21:07;;;;;;;13.93;2.70;;;;;;;;;;5154656;27;20073;-72
2022/01/01 09:23:34;;;;;;;15.02;2.58;;;;;;;;;;5154800;27;20042;-74
2022/01/01 09:26:01;;;;;;;11.13;2.80;;;;;;;;;;5135947;27;20483;-73
2022/01/01 09:28:30;;;;;;;14.52;3.08;;;;;;;;;;5154586;27;20536;-72
2022/01/01 09:30:58;;;;;;;17.70;3.60;;;;;;;;;;5135493;27;20471;-73
2022/01/01 09:33:29;;;;;;;12.45;2.33;;;;;;;;;;5135618;27;20114;-73
2022/01/01 09:36:04;;;;;;;13.25;2.80;;;;;;;;;;5154617;27;20019;-73
2022/01/01 09:38:31;;;;;;;13.00;2.35;;;;;;;;;;5154528;27;20034;-73
2022/01/01 09:40:59;;;;;;;13.63;2.67;;;;;;;;;;5154482;27;20011;-74
2022/01/01 09:43:27;;;;;;;12.13;2.05;;;;;;;;;;5154689;27;20018;-74
2022/01/01 09:45:55;;;;;;;11.15;2.40;;;;;;;;;;5154496;27;20050;-73
2022/01/01 09:48:24;;;;;;;15.77;2.90;;;;;;;;;;5154417;27;20041;-74
2022/01/01 09:50:54;;;;;;;11.02;2.65;;;;;;;;;;5154472;27;20494;-72
2022/01/01 09:53:23;;;;;;;15.30;2.80;;;;;;;;;;5135881;27;20035;-73
2022/01/01 09:55:51;;;;;;;13.40;2.77;;;;;;;;;;5154297;27;20542;-72
2022/01/01 09:58:22;;;;;;;13.75;3.05;;;;;;;;;;5135669;27;20325;-72
2022/01/01 10:00:50;;;;;;;9.95;1.75;;;;;;;;;;5135821;27;20023;-72
2022/01/01 10:03:17;;;;;;;11.80;2.30;;;;;;;;;;5154277;27;20019;-73
2022/01/01 10:06:19;;;;;;;13.82;2.38;;;;;;;;;;5154412;27;20493;-72
2022/01/01 10:08:48;;;;;;;11.10;2.00;;;;;;;;;;5036461;28;20048;-74
2022/01/01 10:11:19;;;;;;;10.63;2.25;;;;;;;;;;5121156;27;20121;-74
2022/01/01 10:13:46;;;;;;;15.38;2.03;;;;;;;;;;5139518;27;20019;-74
2022/01/01 10:16:14;;;;;;;11.60;1.85;;;;;;;;;;5139555;27;20027;-73
2022/01/01 10:18:45;;;;;;;11.15;2.10;;;;;;;;;;5158371;27;20102;-74
2022/01/01 10:21:13;;;;;;;7.35;1.50;;;;;;;;;;5158496;27;20050;-72
2022/01/01 10:23:44;;;;;;;13.73;2.08;;;;;;;;;;5139438;27;20491;-73
2022/01/01 10:29:12;;;;;;;13.88;1.98;;;;;;;;;;5158497;27;20037;-72
2022/01/01 10:31:40;;;;;;;9.57;1.60;;;;;;;;;;5139443;27;20071;-73
2022/01/01 10:34:16;;;;;;;12.25;2.00;;;;;;;;;;5158213;27;20136;-73
2022/01/01 10:36:47;;;;;;;9.63;1.58;;;;;;;;;;5158106;27;20045;-73
2022/01/01 10:39:18;;;;;;;12.10;2.38;;;;;;;;;;5157984;27;20364;-73
2022/01/01 10:41:50;;;;;;;11.77;2.10;;;;;;;;;;5139254;27;20030;-73
2022/01/01 10:44:17;;;;;;;7.85;1.30;;;;;;;;;;5139008;27;20042;-74
2022/01/01 10:46:44;;;;;;;9.52;1.80;;;;;;;;;;5157949;27;20030;-73
2022/01/01 10:49:39;;;;;;;10.68;1.40;;;;;;;;;;5157800;27;20026;-74
2022/01/01 10:52:13;;;;;;;11.10;1.70;;;;;;;;;;5157806;27;20022;-73
2022/01/01 10:54:48;;;;;;;7.88;1.13;;;;;;;;;;5157526;27;20119;-74
2022/01/01 10:57:21;;;;;;;12.07;2.25;;;;;;;;;;5138932;27;20119;-73
2022/01/01 10:59:49;;;;;;;11.90;2.13;;;;;;;;;;5157779;27;20026;-74
2022/01/01 11:02:16;;;;;;;10.27;2.33;;;;;;;;;;5157638;27;20050;-74
2022/01/01 11:04:44;;;;;;;7.50;1.52;;;;;;;;;;5138629;27;20026;-74
2022/01/01 11:07:11;;;;;;;9.10;1.42;;;;;;;;;;5157444;27;20391;-74
2022/01/01 11:09:38;;;;;;;9.23;2.30;;;;;;;;;;5157488;27;20019;-74
2022/01/01 11:12:06;;;;;;;12.05;2.08;;;;;;;;;;5138361;27;20015;-74
2022/01/01 11:14:34;;;;;;;13.40;2.10;;;;;;;;;;5157399;27;20015;-74
2022/01/01 11:17:02;;;;;;;9.15;1.63;;;;;;;;;;5157324;27;20101;-74
2022/01/01 11:19:30;;;;;;;14.52;2.78;;;;;;;;;;5156917;27;20372;-74
2022/01/01 11:21:57;;;;;;;15.52;2.38;;;;;;;;;;5157307;27;20026;-74
2022/01/01 11:24:25;;;;;;;14.60;2.55;;;;;;;;;;5157196;27;20026;-74
2022/01/01 11:26:52;;;;;;;12.23;2.08;;;;;;;;;;5157028;27;20026;-74
2022/01/01 11:29:19;;;;;;;11.05;1.80;;;;;;;;;;5156935;27;20063;-74
2022/01/01 11:31:47;;;;;;;11.90;2.65;;;;;;;;;;5138227;27;20019;-74
2022/01/01 11:34:15;;;;;;;12.02;2.70;;;;;;;;;;5157013;27;20097;-73
2022/01/01 11:36:42;;;;;;;16.52;2.50;;;;;;;;;;5156941;27;20021;-74
2022/01/01 11:39:13;;;;;;;13.82;2.28;;;;;;;;;;5156819;27;20379;-73
2022/01/01 11:41:42;;;;;;;9.23;1.80;;;;;;;;;;5138009;27;20026;-74
2022/01/01 11:44:27;;;;;;;11.90;2.00;;;;;;;;;;5156848;27;20033;-74
2022/01/01 11:47:17;;;;;;;11.38;1.88;;;;;;;;;;5156750;27;20022;-73
2022/01/01 11:49:44;;;;;;;11.13;2.03;;;;;;;;;;5143869;27;20035;-73
2022/01/01 11:52:11;;;;;;;10.50;1.92;;;;;;;;;;5138114;27;20027;-74
2022/01/01 11:54:40;;;;;;;15.05;2.25;;;;;;;;;;5137627;27;20047;-73
2022/01/01 11:57:09;;;;;;;9.00;1.95;;;;;;;;;;5137712;27;20059;-74
2022/01/01 11:59:40;;;;;;;12.38;2.20;;;;;;;;;;5137901;27;20075;-74
2022/01/01 12:02:32;;;;;;;12.10;2.28;;;;;;;;;;5156566;27;20101;-74
2022/01/01 12:05:09;;;;;;;12.50;1.98;;;;;;;;;;5156471;27;20534;-74
2022/01/01 12:07:45;;;;;;;9.27;1.75;;;;;;;;;;5156194;27;20046;-73
2022/01/01 12:10:14;;;;;;;15.10;2.17;;;;;;;;;;5137672;27;20534;-73
2022/01/01 12:12:58;;;;;;;14.00;2.38;;;;;;;;;;5156267;27;20108;-73
2022/01/01 12:15:25;;;;;;;13.55;2.35;;;;;;;;;;5156233;27;20369;-73
2022/01/01 12:18:01;;;;;;;11.85;2.00;;;;;;;;;;5156158;27;20027;-74
2022/01/01 12:20:30;;;;;;;14.07;1.85;;;;;;;;;;5156040;27;20030;-73
2022/01/01 12:22:58;;;;;;;13.88;1.88;;;;;;;;;;5136970;27;20027;-73
2022/01/01 12:25:26;;;;;;;12.68;2.00;;;;;;;;;;5156020;27;20030;-73
2022/01/01 12:27:54;;;;;;;14.30;1.90;;;;;;;;;;5137120;27;20030;-73
2022/01/01 12:30:51;;;;;;;8.45;1.50;;;;;;;;;;5155134;27;20134;-72
2022/01/01 12:33:27;;;;;;;9.98;2.25;;;;;;;;;;5135255;27;20023;-74
2022/01/01 12:35:58;;;;;;;11.15;1.73;;;;;;;;;;5155750;27;20051;-74
2022/01/01 12:38:27;;;;;;;11.00;1.90;;;;;;;;;;5137176;27;20022;-73
2022/01/01 12:41:12;;;;;;;9.05;1.40;;;;;;;;;;5155822;27;20023;-74
2022/01/01 12:43:48;;;;;;;9.70;1.65;;;;;;;;;;5155750;27;20029;-74
2022/01/01 12:46:16;;;;;;;10.00;1.70;;;;;;;;;;5155433;27;20025;-74
2022/01/01 12:48:43;;;;;;;11.80;2.13;;;;;;;;;;5155568;27;20030;-74
2022/01/01 12:51:11;;;;;;;7.50;1.75;;;;;;;;;;5136643;27;20482;-74
2022/01/01 12:53:41;;;;;;;8.20;1.70;;;;;;;;;;5136398;27;20047;-74
2022/01/01 12:56:16;;;;;;;11.38;1.95;;;;;;;;;;5136510;27;20106;-74
2022/01/01 12:58:44;;;;;;;10.98;1.77;;;;;;;;;;5155372;27;20026;-74
2022/01/01 13:01:16;;;;;;;8.23;2.17;;;;;;;;;;5155271;27;20463;-74
2022/01/01 13:03:47;;;;;;;8.43;1.52;;;;;;;;;;5136691;27;20046;-74
2022/01/01 13:06:41;;;;;;;9.00;1.40;;;;;;;;;;5136298;27;20083;-73
2022/01/01 13:09:18;;;;;;;9.13;1.50;;;;;;;;;;5151280;27;20395;-74
2022/01/01 13:11:49;;;;;;;9.13;1.40;;;;;;;;;;5136262;27;20034;-73
2022/01/01 13:14:17;;;;;;;10.27;2.25;;;;;;;;;;5154992;27;20554;-73
2022/01/01 13:16:46;;;;;;;;;;;;;;;;;;5155420;27;20440;-73
2022/01/01 13:19:13;;;;;;;6.40;1.30;;;;;;;;;;5136452;27;19994;-74
2022/01/01 13:21:41;;;;;;;7.38;1.20;;;;;;;;;;5136115;27;20023;-74
2022/01/01 13:24:09;;;;;;;8.32;1.63;;;;;;;;;;5154968;27;20029;-74
2022/01/01 13:26:37;;;;;;;8.85;1.75;;;;;;;;;;5135903;27;20110;-74
2022/01/01 13:29:04;;;;;;;9.57;1.55;;;;;;;;;;5154879;27;20034;-73
2022/01/01 13:31:32;;;;;;;6.53;1.20;;;;;;;;;;5154805;27;20423;-74
2022/01/01 13:34:00;;;;;;;9.80;1.48;;;;;;;;;;5154873;27;20022;-74
2022/01/01 13:36:44;;;;;;;7.50;1.40;;;;;;;;;;5136036;27;20079;-74
2022/01/01 13:39:12;;;;;;;10.18;1.45;;;;;;;;;;5135928;27;20029;-74
2022/01/01 13:41:42;;;;;;;9.18;1.33;;;;;;;;;;5135706;27;20061;-74
2022/01/01 13:44:28;;;;;;;12.38;1.80;;;;;;;;;;5136163;27;20391;-73
2022/01/01 13:47:07;;;;;;;9.55;1.25;;;;;;;;;;5135849;27;20027;-74
2022/01/01 13:49:55;;;;;;;9.27;1.50;;;;;;;;;;5135794;27;20023;-74
2022/01/01 13:52:26;;;;;;;9.70;1.35;;;;;;;;;;5154621;27;20475;-74
2022/01/01 13:55:02;;;;;;;11.40;1.48;;;;;;;;;;5135802;27;20114;-73
2022/01/01 13:57:30;;;;;;;11.15;1.90;;;;;;;;;;5135975;27;20498;-74
2022/01/01 13:59:58;;;;;;;8.32;1.30;;;;;;;;;;5136030;27;20105;-74
2022/01/01 14:02:27;;;;;;;8.75;1.92;;;;;;;;;;5154502;27;20475;-74
2022/01/01 14:05:00;;;;;;;9.27;1.80;;;;;;;;;;5135796;27;20034;-74
2022/01/01 14:07:27;;;;;;;11.60;2.17;;;;;;;;;;5135695;27;20114;-73
2022/01/01 14:10:03;;;;;;;9.32;1.52;;;;;;;;;;5154482;27;20038;-73
2022/01/01 14:12:32;;;;;;;9.45;1.30;;;;;;;;;;5154428;27;20049;-73
2022/01/01 14:15:12;;;;;;;7.50;1.50;;;;;;;;;;5154464;27;20531;-73
2022/01/01 14:18:09;;;;;;;9.48;1.50;;;;;;;;;;5135810;27;20074;-73
2022/01/01 14:20:37;;;;;;;10.73;1.73;;;;;;;;;;5133962;27;20555;-74
2022/01/01 14:23:06;;;;;;;11.95;1.35;;;;;;;;;;5154378;27;20027;-73
2022/01/01 14:25:34;;;;;;;7.32;1.77;;;;;;;;;;5154347;27;20023;-73
2022/01/01 14:28:02;;;;;;;6.10;1.83;;;;;;;;;;5135694;27;20026;-73
2022/01/01 14:30:29;;;;;;;10.27;1.38;;;;;;;;;;5135722;27;20031;-73
2022/01/01 14:32:58;;;;;;;9.85;1.80;;;;;;;;;;5154298;27;20439;-73
2022/01/01 14:35:29;;;;;;;7.30;2.03;;;;;;;;;;5135599;27;20026;-73
2022/01/01 14:37:57;;;;;;;10.35;1.67;;;;;;;;;;5154328;27;20098;-73
2022/01/01 14:40:24;;;;;;;9.57;1.52;;;;;;;;;;5135671;27;20023;-72
2022/01/01 14:42:52;;;;;;;9.80;1.80;;;;;;;;;;5135622;27;20030;-73
2022/01/01 14:45:19;;;;;;;10.07;2.25;;;;;;;;;;5154152;27;20019;-72
2022/01/01 14:48:06;;;;;;;10.50;1.50;;;;;;;;;;5135446;27;20033;-72
2022/01/01 14:50:35;;;;;;;6.25;1.10;;;;;;;;;;5154079;27;20019;-73
2022/01/01 14:53:08;;;;;;;10.05;1.50;;;;;;;;;;5135415;27;20395;-73
2022/01/01 14:55:46;;;;;;;9.52;1.33;;;;;;;;;;5157922;27;20018;-73
2022/01/01 14:58:16;;;;;;;7.22;1.48;;;;;;;;;;5139274;27;20050;-73